createdAt,value
2022-10-17T00:00:34.559Z,82.70
2022-10-17T00:03:02.077Z,82.80
2022-10-17T00:05:28.835Z,82.80
2022-10-17T00:07:55.910Z,82.90
2022-10-17T00:10:22.880Z,83.00
2022-10-17T00:12:51.599Z,82.90
2022-10-17T00:15:20.517Z,83.00
2022-10-17T00:17:47.384Z,83.10
2022-10-17T00:20:14.986Z,83.10
2022-10-17T00:22:42.640Z,83.30
2022-10-17T00:25:09.913Z,83.30
2022-10-17T00:27:37.972Z,83.40
2022-10-17T00:30:06.187Z,83.40
2022-10-17T00:32:33.042Z,83.50
2022-10-17T00:34:59.836Z,83.40
2022-10-17T00:37:26.583Z,83.50
2022-10-17T00:39:54.437Z,83.60
2022-10-17T00:42:22.065Z,83.60
2022-10-17T00:44:48.749Z,83.70
2022-10-17T00:47:19.557Z,83.70
2022-10-17T00:49:47.095Z,83.80
2022-10-17T00:52:17.818Z,83.80
2022-10-17T00:54:51.846Z,83.90
2022-10-17T00:57:18.785Z,83.90
2022-10-17T00:59:50.949Z,83.90
2022-10-17T01:02:20.617Z,83.90
2022-10-17T01:04:50.164Z,83.90
2022-10-17T01:07:17.443Z,83.90
2022-10-17T01:09:45.706Z,83.90
2022-10-17T01:12:18.368Z,83.90
2022-10-17T01:15:03.221Z,83.90
2022-10-17T01:17:35.991Z,84.00
2022-10-17T01:20:42.906Z,83.80
2022-10-17T01:23:30.795Z,84.00
2022-10-17T01:26:16.301Z,84.00
2022-10-17T01:29:00.877Z,84.00
2022-10-17T01:31:52.542Z,84.10
2022-10-17T01:34:33.568Z,84.00
2022-10-17T01:37:14.768Z,84.00
2022-10-17T01:40:26.600Z,84.00
2022-10-17T01:43:03.534Z,84.20
2022-10-17T01:45:40.478Z,84.20
2022-10-17T01:48:17.447Z,84.20
2022-10-17T01:50:54.954Z,84.30
2022-10-17T01:53:31.827Z,84.40
2022-10-17T01:56:02.727Z,84.40
2022-10-17T01:58:42.014Z,84.60
2022-10-17T02:01:11.501Z,84.70
2022-10-17T02:03:40.944Z,84.70
2022-10-17T02:06:07.887Z,84.70
2022-10-17T02:08:42.274Z,84.80
2022-10-17T02:11:16.745Z,84.90
2022-10-17T02:13:52.322Z,85.00
2022-10-17T02:16:43.441Z,85.00
2022-10-17T02:19:15.952Z,85.00
2022-10-17T02:22:05.802Z,85.10
2022-10-17T02:24:38.605Z,85.10
2022-10-17T02:27:28.052Z,85.10
2022-10-17T02:30:35.246Z,85.10
2022-10-17T02:33:26.240Z,85.20
2022-10-17T02:35:56.857Z,85.20
2022-10-17T02:38:26.757Z,85.10
2022-10-17T02:40:54.066Z,85.10
2022-10-17T02:43:21.907Z,85.10
2022-10-17T02:45:50.101Z,85.10
2022-10-17T02:48:37.805Z,85.20
2022-10-17T02:51:34.404Z,85.20
2022-10-17T02:54:08.355Z,85.30
2022-10-17T02:56:41.331Z,85.30
2022-10-17T02:59:12.331Z,85.50
2022-10-17T03:01:39.269Z,85.50
2022-10-17T03:04:12.729Z,85.60
2022-10-17T03:06:41.182Z,85.70
2022-10-17T03:09:08.385Z,85.60
2022-10-17T03:11:35.300Z,85.70
2022-10-17T03:14:02.124Z,85.70
2022-10-17T03:16:29.102Z,85.70
2022-10-17T03:18:56.226Z,85.70
2022-10-17T03:21:22.995Z,85.70
2022-10-17T03:23:49.788Z,85.80
2022-10-17T03:26:16.545Z,85.80
2022-10-17T03:28:43.488Z,85.70
2022-10-17T03:31:12.964Z,85.80
2022-10-17T03:33:39.703Z,85.70
2022-10-17T03:36:15.400Z,85.60
2022-10-17T03:38:43.468Z,85.70
2022-10-17T03:41:10.569Z,85.70
2022-10-17T03:43:37.535Z,85.60
2022-10-17T03:46:07.394Z,85.60
2022-10-17T03:48:34.352Z,85.60
2022-10-17T03:51:05.856Z,85.60
2022-10-17T03:53:33.061Z,85.60
2022-10-17T03:56:14.494Z,85.60
2022-10-17T03:58:41.914Z,85.70
2022-10-17T04:01:11.616Z,85.60
2022-10-17T04:03:38.763Z,85.70
2022-10-17T04:06:06.680Z,85.70
2022-10-17T04:08:34.541Z,85.80
2022-10-17T04:11:02.942Z,85.70
2022-10-17T04:13:30.827Z,85.70
2022-10-17T04:16:02.663Z,85.70
2022-10-17T04:18:29.512Z,85.60
2022-10-17T04:20:56.727Z,85.50
2022-10-17T04:23:23.728Z,85.40
2022-10-17T04:25:50.506Z,85.30
2022-10-17T04:28:17.329Z,85.20
2022-10-17T04:30:45.555Z,85.10
2022-10-17T04:33:12.546Z,85.30
2022-10-17T04:35:39.309Z,85.20
2022-10-17T04:38:06.045Z,85.30
2022-10-17T04:40:32.835Z,85.30
2022-10-17T04:42:59.669Z,85.20
2022-10-17T04:45:26.405Z,85.30
2022-10-17T04:47:53.181Z,85.30
2022-10-17T04:50:19.922Z,85.20
2022-10-17T04:52:46.679Z,85.10
2022-10-17T04:55:13.404Z,85.10
2022-10-17T04:57:40.192Z,85.20
2022-10-17T05:02:41.201Z,85.20
2022-10-17T05:05:08.456Z,85.30
2022-10-17T05:07:35.231Z,85.30
2022-10-17T05:10:02.186Z,85.40
2022-10-17T05:12:29.299Z,85.40
2022-10-17T05:14:56.213Z,85.40
2022-10-17T05:17:22.917Z,85.30
2022-10-17T05:19:49.665Z,85.30
2022-10-17T05:22:16.414Z,85.20
2022-10-17T05:24:43.140Z,85.10
2022-10-17T05:31:04.929Z,85.00
2022-10-17T05:33:31.978Z,85.00
2022-10-17T05:35:59.276Z,84.90
2022-10-17T05:38:26.894Z,84.90
2022-10-17T05:40:58.653Z,85.00
2022-10-17T05:43:25.822Z,85.00
2022-10-17T05:45:52.744Z,84.90
2022-10-17T05:48:20.235Z,84.90
2022-10-17T05:50:47.399Z,85.00
2022-10-17T05:53:14.242Z,85.00
2022-10-17T05:55:41.177Z,84.90
2022-10-17T05:58:07.981Z,85.00
2022-10-17T06:00:34.963Z,84.80
2022-10-17T06:03:01.770Z,84.80
2022-10-17T06:05:28.590Z,84.80
2022-10-17T06:07:58.307Z,84.70
2022-10-17T06:10:27.969Z,84.70
2022-10-17T06:12:54.751Z,84.70
2022-10-17T06:15:21.479Z,84.80
2022-10-17T06:17:48.272Z,84.70
2022-10-17T06:20:15.106Z,84.80
2022-10-17T06:22:41.923Z,84.70
2022-10-17T06:25:09.195Z,84.60
2022-10-17T06:27:35.921Z,85.30
2022-10-17T06:30:02.768Z,84.60
2022-10-17T06:32:29.764Z,84.50
2022-10-17T06:34:56.707Z,84.50
2022-10-17T06:37:23.448Z,84.40
2022-10-17T06:39:50.214Z,84.40
2022-10-17T06:42:17.030Z,84.50
2022-10-17T06:44:43.793Z,84.50
2022-10-17T06:47:11.296Z,84.70
2022-10-17T06:49:38.350Z,84.80
2022-10-17T06:52:05.344Z,84.70
2022-10-17T06:54:32.368Z,84.60
2022-10-17T06:56:59.087Z,84.60
2022-10-17T06:59:25.825Z,84.80
2022-10-17T07:01:52.576Z,84.70
2022-10-17T07:04:19.718Z,84.80
2022-10-17T07:06:46.533Z,84.70
2022-10-17T07:09:14.128Z,84.70
2022-10-17T07:11:40.898Z,84.60
2022-10-17T07:14:07.672Z,84.60
2022-10-17T07:16:34.950Z,84.50
2022-10-17T07:19:01.799Z,84.20
2022-10-17T07:21:28.705Z,84.20
2022-10-17T07:23:55.445Z,84.20
2022-10-17T07:26:22.407Z,84.10
2022-10-17T07:28:53.240Z,84.10
2022-10-17T07:31:21.419Z,84.00
2022-10-17T07:33:48.880Z,84.00
2022-10-17T07:36:15.898Z,84.60
2022-10-17T07:38:42.771Z,83.70
2022-10-17T07:41:11.468Z,83.70
2022-10-17T07:43:38.808Z,83.80
2022-10-17T07:46:06.404Z,83.70
2022-10-17T07:48:33.412Z,83.80
2022-10-17T07:51:05.043Z,83.80
2022-10-17T07:53:31.966Z,83.90
2022-10-17T07:55:59.022Z,83.70
2022-10-17T07:58:26.006Z,83.80
2022-10-17T08:00:53.022Z,83.80
2022-10-17T08:03:19.904Z,83.90
2022-10-17T08:05:46.696Z,84.00
2022-10-17T08:08:13.459Z,84.20
2022-10-17T08:10:40.274Z,84.30
2022-10-17T08:13:07.332Z,84.40
2022-10-17T08:15:34.062Z,84.40
2022-10-17T08:18:00.800Z,84.40
2022-10-17T08:20:27.614Z,85.20
2022-10-17T08:22:55.310Z,84.50
2022-10-17T08:25:22.771Z,84.50
2022-10-17T08:27:49.978Z,84.50
2022-10-17T08:30:17.548Z,84.50
2022-10-17T08:32:44.486Z,84.60
2022-10-17T08:35:11.530Z,84.70
2022-10-17T08:37:38.310Z,85.00
2022-10-17T08:40:05.801Z,85.10
2022-10-17T08:43:19.870Z,85.20
2022-10-17T08:45:53.482Z,85.30
2022-10-17T08:48:24.245Z,85.00
2022-10-17T08:50:59.213Z,85.10
2022-10-17T08:53:35.087Z,85.00
2022-10-17T08:56:19.618Z,85.10
2022-10-17T08:58:51.771Z,85.20
2022-10-17T09:01:42.485Z,85.10
2022-10-17T09:07:17.382Z,85.20
2022-10-17T09:10:02.070Z,85.20
2022-10-17T09:13:05.355Z,85.20
2022-10-17T09:15:51.030Z,85.30
2022-10-17T09:18:42.766Z,85.40
2022-10-17T09:21:14.854Z,85.50
2022-10-17T09:23:59.669Z,85.50
2022-10-17T09:26:36.490Z,85.50
2022-10-17T09:29:10.783Z,85.50
2022-10-17T09:31:52.313Z,85.50
2022-10-17T09:34:20.376Z,85.60
2022-10-17T09:36:48.691Z,85.50
2022-10-17T09:39:19.478Z,85.60
2022-10-17T09:41:55.509Z,85.70
2022-10-17T09:44:25.938Z,85.70
2022-10-17T09:47:13.395Z,85.70
2022-10-17T09:49:45.834Z,85.80
2022-10-17T09:52:27.790Z,85.80
2022-10-17T09:55:06.744Z,85.80
2022-10-17T09:57:58.110Z,86.00
2022-10-17T10:00:31.876Z,86.10
2022-10-17T10:03:26.107Z,86.10
2022-10-17T10:06:06.606Z,86.30
2022-10-17T10:08:49.535Z,86.40
2022-10-17T10:11:17.785Z,86.30
2022-10-17T10:13:47.316Z,86.50
2022-10-17T10:16:21.487Z,86.40
2022-10-17T10:18:50.943Z,86.50
2022-10-17T10:21:23.462Z,86.50
2022-10-17T10:24:08.804Z,86.50
2022-10-17T10:26:42.610Z,86.50
2022-10-17T10:29:31.296Z,86.50
2022-10-17T10:32:23.884Z,86.50
2022-10-17T10:34:56.726Z,86.70
2022-10-17T10:37:37.210Z,86.50
2022-10-17T10:40:20.111Z,86.40
2022-10-17T10:42:49.530Z,86.30
2022-10-17T10:45:50.036Z,86.20
2022-10-17T10:48:20.773Z,86.20
2022-10-17T10:51:14.075Z,86.20
2022-10-17T10:54:01.555Z,86.30
2022-10-17T10:56:38.883Z,86.20
2022-10-17T10:59:08.705Z,86.40
2022-10-17T11:01:56.592Z,86.50
2022-10-17T11:04:41.103Z,86.50
2022-10-17T11:07:35.011Z,86.60
2022-10-17T11:10:20.574Z,86.70
2022-10-17T11:13:10.222Z,86.70
2022-10-17T11:15:49.635Z,86.90
2022-10-17T11:18:35.213Z,87.00
2022-10-17T11:21:16.749Z,87.20
2022-10-17T11:23:48.603Z,87.10
2022-10-17T11:26:26.755Z,86.90
2022-10-17T11:29:06.555Z,86.50
2022-10-17T11:31:39.368Z,86.10
2022-10-17T11:34:20.139Z,86.30
2022-10-17T11:36:50.950Z,86.20
2022-10-17T11:39:28.098Z,86.00
2022-10-17T11:42:07.185Z,86.10
2022-10-17T11:44:39.565Z,86.10
2022-10-17T11:47:14.919Z,86.10
2022-10-17T11:49:51.041Z,86.90
2022-10-17T11:55:26.356Z,86.30
2022-10-17T11:58:31.758Z,86.40
2022-10-17T12:01:22.778Z,86.40
2022-10-17T12:04:14.047Z,86.40
2022-10-17T12:06:52.435Z,86.50
2022-10-17T12:09:22.337Z,86.50
2022-10-17T12:11:58.547Z,86.50
2022-10-17T12:14:41.566Z,86.50
2022-10-17T12:17:32.988Z,86.50
2022-10-17T12:20:24.915Z,86.50
2022-10-17T12:23:03.210Z,86.70
2022-10-17T12:25:33.736Z,86.70
2022-10-17T12:28:06.562Z,86.50
2022-10-17T12:30:34.486Z,86.40
2022-10-17T12:33:11.455Z,86.40
2022-10-17T12:35:39.606Z,86.40
2022-10-17T12:38:18.273Z,86.40
2022-10-17T12:40:49.098Z,86.40
2022-10-17T12:43:15.992Z,86.40
2022-10-17T12:45:53.028Z,86.40
2022-10-17T12:48:34.799Z,86.50
2022-10-17T12:51:34.672Z,86.80
2022-10-17T12:53:59.200Z,86.80
2022-10-17T12:56:44.452Z,86.80
2022-10-17T12:59:24.453Z,86.90
2022-10-17T13:01:57.874Z,86.80
2022-10-17T13:04:25.671Z,86.80
2022-10-17T13:06:55.527Z,86.80
2022-10-17T13:09:42.574Z,86.90
2022-10-17T13:12:14.972Z,87.00
2022-10-17T13:14:43.561Z,87.00
2022-10-17T13:17:26.133Z,87.10
2022-10-17T13:19:53.398Z,87.10
2022-10-17T13:22:26.998Z,87.30
2022-10-17T13:25:08.542Z,87.50
2022-10-17T13:27:37.158Z,87.60
2022-10-17T13:30:24.788Z,87.60
2022-10-17T13:32:53.976Z,87.50
2022-10-17T13:36:00.374Z,87.50
2022-10-17T13:38:32.794Z,87.40
2022-10-17T13:41:16.890Z,87.30
2022-10-17T13:43:49.581Z,87.30
2022-10-17T13:46:37.424Z,87.10
2022-10-17T13:49:25.913Z,86.80
2022-10-17T13:51:55.868Z,86.70
2022-10-17T13:54:53.729Z,86.90
2022-10-17T13:57:26.238Z,86.70
2022-10-17T13:59:58.141Z,86.60
2022-10-17T14:02:30.433Z,86.50
2022-10-17T14:05:19.684Z,86.50
2022-10-17T14:10:41.244Z,86.20
2022-10-17T14:13:17.839Z,86.20
2022-10-17T14:15:46.427Z,86.10
2022-10-17T14:18:25.835Z,86.00
2022-10-17T14:21:36.879Z,85.70
2022-10-17T14:23:43.285Z,85.60
2022-10-17T14:26:46.345Z,85.50
2022-10-17T14:29:28.880Z,85.30
2022-10-17T14:32:15.237Z,85.10
2022-10-17T14:34:42.176Z,84.80
2022-10-17T14:37:18.419Z,85.10
2022-10-17T14:39:50.493Z,85.00
2022-10-17T14:42:22.537Z,85.10
2022-10-17T14:44:51.120Z,85.10
2022-10-17T14:47:42.597Z,85.00
2022-10-17T14:50:21.202Z,85.10
2022-10-17T14:53:21.599Z,85.00
2022-10-17T14:55:57.396Z,85.10
2022-10-17T14:58:34.376Z,84.90
2022-10-17T15:01:02.422Z,84.60
2022-10-17T15:03:29.198Z,84.90
2022-10-17T15:05:56.221Z,84.90
2022-10-17T15:08:24.235Z,84.90
2022-10-17T15:10:51.572Z,84.80
2022-10-17T15:13:40.979Z,84.80
2022-10-17T15:16:22.956Z,84.70
2022-10-17T15:18:50.707Z,84.70
2022-10-17T15:21:33.712Z,84.60
2022-10-17T15:24:06.115Z,84.60
2022-10-17T15:26:34.257Z,84.70
2022-10-17T15:29:02.261Z,84.60
2022-10-17T15:31:31.280Z,84.60
2022-10-17T15:33:58.068Z,84.60
2022-10-17T15:36:29.228Z,84.60
2022-10-17T15:38:59.115Z,84.60
2022-10-17T15:41:27.731Z,84.50
2022-10-17T15:43:54.602Z,84.50
2022-10-17T15:46:33.927Z,84.50
2022-10-17T15:49:17.173Z,84.50
2022-10-17T15:51:44.222Z,85.10
2022-10-17T15:56:43.539Z,84.30
2022-10-17T15:59:18.446Z,84.30
2022-10-17T16:01:46.023Z,84.30
2022-10-17T16:04:15.438Z,84.30
2022-10-17T16:06:43.026Z,84.30
2022-10-17T16:09:10.748Z,84.40
2022-10-17T16:11:40.507Z,84.40
2022-10-17T16:14:15.545Z,84.40
2022-10-17T16:16:42.727Z,84.50
2022-10-17T16:19:09.689Z,84.50
2022-10-17T16:21:39.169Z,84.50
2022-10-17T16:24:06.434Z,84.50
2022-10-17T16:26:33.300Z,84.50
2022-10-17T16:29:02.885Z,84.50
2022-10-17T16:31:35.644Z,84.50
2022-10-17T16:34:03.965Z,84.50
2022-10-17T16:36:30.901Z,84.50
2022-10-17T16:38:58.140Z,84.50
2022-10-17T16:41:25.898Z,84.40
2022-10-17T16:43:54.422Z,84.40
2022-10-17T16:46:22.461Z,84.30
2022-10-17T16:48:49.585Z,84.30
2022-10-17T16:51:18.388Z,84.20
2022-10-17T16:53:46.509Z,84.20
2022-10-17T16:56:24.438Z,84.20
2022-10-17T16:58:51.919Z,84.00
2022-10-17T17:01:21.454Z,84.00
2022-10-17T17:03:48.482Z,84.00
2022-10-17T17:06:19.122Z,84.00
2022-10-17T17:08:46.250Z,84.00
2022-10-17T17:11:14.953Z,83.90
2022-10-17T17:13:42.089Z,84.00
2022-10-17T17:16:11.682Z,84.10
2022-10-17T17:18:38.859Z,84.20
2022-10-17T17:21:07.162Z,84.30
2022-10-17T17:23:40.922Z,84.50
2022-10-17T17:26:16.418Z,84.50
2022-10-17T17:28:43.899Z,84.50
2022-10-17T17:31:22.380Z,84.30
2022-10-17T17:33:50.052Z,84.40
2022-10-17T17:36:22.693Z,84.30
2022-10-17T17:38:51.101Z,84.90
2022-10-17T17:41:19.367Z,84.00
2022-10-17T17:43:47.326Z,84.00
2022-10-17T17:46:16.564Z,84.70
2022-10-17T17:48:47.033Z,83.80
2022-10-17T17:51:15.821Z,83.70
2022-10-17T17:53:42.778Z,83.70
2022-10-17T17:56:18.379Z,83.50
2022-10-17T17:58:46.600Z,83.50
2022-10-17T18:01:18.914Z,84.30
2022-10-17T18:03:46.402Z,83.50
2022-10-17T18:06:13.536Z,83.50
2022-10-17T18:08:40.352Z,83.40
2022-10-17T18:11:07.190Z,83.40
2022-10-17T18:13:33.967Z,83.40
2022-10-17T18:16:01.823Z,83.20
2022-10-17T18:18:30.489Z,83.20
2022-10-17T18:21:00.886Z,83.10
2022-10-17T18:23:27.697Z,82.90
2022-10-17T18:26:01.546Z,82.90
2022-10-17T18:28:28.637Z,82.90
2022-10-17T18:30:58.038Z,82.80
2022-10-17T18:33:25.101Z,82.70
2022-10-17T18:35:51.860Z,82.60
2022-10-17T18:38:18.589Z,82.60
2022-10-17T18:40:47.351Z,82.60
2022-10-17T18:43:16.781Z,82.70
2022-10-17T18:45:43.653Z,82.60
2022-10-17T18:48:10.471Z,82.50
2022-10-17T18:50:39.324Z,82.60
2022-10-17T18:53:06.060Z,82.60
2022-10-17T18:55:32.797Z,82.60
2022-10-17T18:58:00.708Z,82.60
2022-10-17T19:00:27.460Z,82.60
2022-10-17T19:02:54.290Z,82.60
2022-10-17T19:05:21.169Z,82.60
2022-10-17T19:07:47.976Z,82.60
2022-10-17T19:10:14.817Z,82.60
2022-10-17T19:12:41.605Z,83.40
2022-10-17T19:15:08.626Z,82.60
2022-10-17T19:17:35.380Z,82.70
2022-10-17T19:20:02.162Z,82.70
2022-10-17T19:22:30.371Z,82.70
2022-10-17T19:24:57.174Z,82.70
2022-10-17T19:27:23.960Z,82.70
2022-10-17T19:29:50.693Z,82.80
2022-10-17T19:32:20.635Z,82.80
2022-10-17T19:34:49.760Z,82.70
2022-10-17T19:37:16.548Z,82.80
2022-10-17T19:39:43.397Z,82.80
2022-10-17T19:42:10.402Z,82.80
2022-10-17T19:44:37.428Z,82.90
2022-10-17T19:47:04.246Z,82.90
2022-10-17T19:49:31.072Z,82.80
2022-10-17T19:51:57.854Z,82.80
2022-10-17T19:54:24.796Z,82.80
2022-10-17T19:56:51.545Z,82.80
2022-10-17T19:59:18.932Z,82.80
2022-10-17T20:01:46.193Z,82.90
2022-10-17T20:04:13.496Z,82.90
2022-10-17T20:06:41.078Z,82.80
2022-10-17T20:09:11.177Z,82.90
2022-10-17T20:11:41.086Z,82.90
2022-10-17T20:14:08.489Z,82.90
2022-10-17T20:16:37.085Z,82.90
2022-10-17T20:19:10.857Z,82.80
2022-10-17T20:21:39.793Z,82.90
2022-10-17T20:24:09.524Z,82.80
2022-10-17T20:26:38.580Z,82.80
2022-10-17T20:29:11.840Z,82.80
2022-10-17T20:31:40.236Z,82.80
2022-10-17T20:34:07.168Z,82.70
2022-10-17T20:36:36.983Z,82.70
2022-10-17T20:39:05.306Z,82.80
2022-10-17T20:41:32.233Z,82.90
2022-10-17T20:43:59.183Z,82.90
2022-10-17T20:49:18.659Z,82.80
2022-10-17T20:51:46.094Z,82.90
2022-10-17T20:54:13.110Z,82.90
2022-10-17T20:56:40.223Z,82.90
2022-10-17T20:59:12.323Z,83.60
2022-10-17T21:01:39.141Z,82.80
2022-10-17T21:04:33.185Z,82.80
2022-10-17T21:06:53.526Z,82.80
2022-10-17T21:09:21.139Z,82.80
2022-10-17T21:11:51.311Z,82.80
2022-10-17T21:14:18.735Z,82.90
2022-10-17T21:16:45.586Z,83.00
2022-10-17T21:19:13.256Z,83.00
2022-10-17T21:21:41.949Z,83.20
2022-10-17T21:24:14.180Z,83.20
2022-10-17T21:26:42.465Z,83.20
2022-10-17T21:29:10.230Z,83.10
2022-10-17T21:31:38.593Z,83.10
2022-10-17T21:34:11.220Z,83.10
2022-10-17T21:36:38.400Z,83.20
2022-10-17T21:39:05.816Z,83.20
2022-10-17T21:41:33.370Z,83.10
2022-10-17T21:44:05.835Z,83.20
2022-10-17T21:46:33.490Z,83.30
2022-10-17T21:49:01.093Z,83.20
2022-10-17T21:51:28.489Z,83.20
2022-10-17T21:53:57.415Z,83.20
2022-10-17T21:56:28.759Z,83.20
2022-10-17T21:58:56.445Z,83.30
2022-10-17T22:01:28.953Z,83.20
2022-10-17T22:03:57.988Z,83.30
2022-10-17T22:06:42.534Z,83.20
2022-10-17T22:09:17.781Z,83.30
2022-10-17T22:11:46.753Z,83.30
2022-10-17T22:14:16.079Z,83.30
2022-10-17T22:16:45.296Z,83.40
2022-10-17T22:19:13.994Z,83.50
2022-10-17T22:21:40.832Z,83.40
2022-10-17T22:24:10.697Z,83.40
2022-10-17T22:26:38.504Z,83.40
2022-10-17T22:29:07.133Z,83.40
2022-10-17T22:31:34.740Z,83.40
2022-10-17T22:34:01.490Z,83.40
2022-10-17T22:36:28.219Z,83.50
2022-10-17T22:38:55.047Z,83.40
2022-10-17T22:41:22.776Z,83.50
2022-10-17T22:43:49.527Z,83.40
2022-10-17T22:46:17.025Z,83.40
2022-10-17T22:48:43.981Z,83.40
2022-10-17T22:51:11.275Z,83.40
2022-10-17T22:53:38.410Z,83.40
2022-10-17T22:56:11.159Z,83.30
2022-10-17T22:58:38.478Z,83.40
2022-10-17T23:01:06.448Z,83.40
2022-10-17T23:03:34.669Z,83.40
2022-10-17T23:06:01.859Z,83.40
2022-10-17T23:08:28.854Z,83.40
2022-10-17T23:10:55.829Z,83.40
2022-10-17T23:13:22.781Z,83.40
2022-10-17T23:15:54.431Z,83.50
2022-10-17T23:18:22.362Z,83.60
2022-10-17T23:20:49.772Z,83.60
2022-10-17T23:23:17.151Z,83.60
2022-10-17T23:25:44.387Z,83.60
2022-10-17T23:28:11.648Z,83.60
2022-10-17T23:30:39.267Z,83.60
2022-10-17T23:33:06.917Z,83.70
2022-10-17T23:35:35.522Z,83.70
2022-10-17T23:38:02.713Z,83.70
2022-10-17T23:40:29.919Z,83.70
2022-10-17T23:42:56.762Z,83.70
2022-10-17T23:45:23.622Z,83.70
2022-10-17T23:47:50.512Z,83.70
2022-10-17T23:50:17.436Z,83.70
2022-10-17T23:52:44.194Z,83.70
2022-10-17T23:55:11.193Z,83.70
2022-10-17T23:57:38.066Z,83.70
